Hovedside
METAR-TAF:

METAR-TAF

Lufthavner :

Bahrain, Bahrain

breddegrad: 26-16N, lengdegrad: 050-39E, høyde over havet: 2 m

Gjeldene værobservasjon

Denne rapporten ble laget for 34 minutter siden, klokken 15:30 UTC
Vind 18 kt fra Vest-nordvest
Temperatur 20°C
Luftfuktighet 40%
Trykk 1015 hPa
Sikt 10 km eller mer
ingen skyer under 1500 m og ingen bygeskyer

METAR: OBBI 201530Z 30018KT CAVOK 20/06 Q1015 NOSIG

Tid: 19:04 (16:04 UTC)

Varsel

Denne rapporten ble laget for 5 timer og 4 minutter siden, klokken 11:00 UTC
Varsel gyldig fra 20. klokken 12 UTC til 21. klokken 18 UTC
Vind 17 kt fra Nord-nordvest med vindkast opp mot 27 kt
Sikt 10 km eller mer
Spredte skyer i en høyde av 3000 ft

TAF: OBBI 201100Z 2012/2118 33017G27KT 9999 SCT030

Værobservasjoner og værvarsel for over 4000 flyplasser (METAR- og TAF-rapporter).

Tilgjengelige stasjoner er representert av de røde og gule prikkene på kartet.

Hold musepekeren over prikken for å se navnet på stasjonen.

Klikk så for å se værobservasjoner og -varsler.

For å forandre kartet kan du klikke på den grønne knappen med svart kryss for å zoome inn, på den grønne knappen med strek for å zoome ut, eller på de grønne pilene for å se tilstøtende kart.


METAR-TAF: